sensor_id;sensor_type;location;lat;lon;timestamp;P1;durP1;ratioP1;P2;durP2;ratioP2
22851;SDS011;11592;45.460;9.240;2023-09-19T00:00:43;14.73;;;7.00;;
22851;SDS011;11592;45.460;9.240;2023-09-19T00:03:13;13.95;;;7.30;;
22851;SDS011;11592;45.460;9.240;2023-09-19T00:05:40;10.32;;;6.72;;
22851;SDS011;11592;45.460;9.240;2023-09-19T00:08:10;12.98;;;7.30;;
22851;SDS011;11592;45.460;9.240;2023-09-19T00:10:39;15.05;;;8.52;;
22851;SDS011;11592;45.460;9.240;2023-09-19T00:13:08;12.15;;;7.28;;
22851;SDS011;11592;45.460;9.240;2023-09-19T00:15:40;13.02;;;6.93;;
22851;SDS011;11592;45.460;9.240;2023-09-19T00:18:08;11.88;;;6.82;;
22851;SDS011;11592;45.460;9.240;2023-09-19T00:20:36;13.30;;;7.75;;
22851;SDS011;11592;45.460;9.240;2023-09-19T00:23:03;13.63;;;6.85;;
22851;SDS011;11592;45.460;9.240;2023-09-19T00:25:35;14.35;;;7.43;;
22851;SDS011;11592;45.460;9.240;2023-09-19T00:28:04;12.95;;;7.88;;
22851;SDS011;11592;45.460;9.240;2023-09-19T00:30:33;14.48;;;7.85;;
22851;SDS011;11592;45.460;9.240;2023-09-19T00:33:01;18.35;;;9.68;;
22851;SDS011;11592;45.460;9.240;2023-09-19T00:35:32;16.88;;;9.73;;
22851;SDS011;11592;45.460;9.240;2023-09-19T00:37:59;24.33;;;12.63;;
22851;SDS011;11592;45.460;9.240;2023-09-19T00:40:26;30.08;;;13.00;;
22851;SDS011;11592;45.460;9.240;2023-09-19T00:42:53;21.10;;;12.90;;
22851;SDS011;11592;45.460;9.240;2023-09-19T00:45:26;34.08;;;14.35;;
22851;SDS011;11592;45.460;9.240;2023-09-19T00:47:54;29.42;;;14.73;;
22851;SDS011;11592;45.460;9.240;2023-09-19T00:50:23;30.98;;;14.95;;
22851;SDS011;11592;45.460;9.240;2023-09-19T00:52:53;34.38;;;17.05;;
22851;SDS011;11592;45.460;9.240;2023-09-19T00:55:22;33.05;;;17.70;;
22851;SDS011;11592;45.460;9.240;2023-09-19T00:57:51;32.72;;;18.30;;
22851;SDS011;11592;45.460;9.240;2023-09-19T01:00:19;33.35;;;18.70;;
22851;SDS011;11592;45.460;9.240;2023-09-19T01:02:47;32.97;;;19.40;;
22851;SDS011;11592;45.460;9.240;2023-09-19T01:05:15;36.92;;;18.67;;
22851;SDS011;11592;45.460;9.240;2023-09-19T01:07:42;35.30;;;18.27;;
22851;SDS011;11592;45.460;9.240;2023-09-19T01:10:15;35.35;;;17.77;;
22851;SDS011;11592;45.460;9.240;2023-09-19T01:21:00;25.55;;;15.43;;
22851;SDS011;11592;45.460;9.240;2023-09-19T01:23:48;25.50;;;14.93;;
22851;SDS011;11592;45.460;9.240;2023-09-19T01:32:17;30.80;;;16.58;;
22851;SDS011;11592;45.460;9.240;2023-09-19T01:37:22;27.80;;;16.67;;
22851;SDS011;11592;45.460;9.240;2023-09-19T01:39:55;27.77;;;15.43;;
22851;SDS011;11592;45.460;9.240;2023-09-19T01:45:43;28.00;;;16.65;;
22851;SDS011;11592;45.460;9.240;2023-09-19T01:48:18;27.00;;;14.27;;
22851;SDS011;11592;45.460;9.240;2023-09-19T01:51:07;31.70;;;16.38;;
22851;SDS011;11592;45.460;9.240;2023-09-19T01:53:43;31.42;;;17.05;;
22851;SDS011;11592;45.460;9.240;2023-09-19T01:56:25;32.80;;;16.60;;
22851;SDS011;11592;45.460;9.240;2023-09-19T01:58:59;25.65;;;14.88;;
22851;SDS011;11592;45.460;9.240;2023-09-19T02:01:32;30.20;;;15.50;;
22851;SDS011;11592;45.460;9.240;2023-09-19T02:04:01;25.67;;;14.48;;
22851;SDS011;11592;45.460;9.240;2023-09-19T02:06:28;27.45;;;14.30;;
22851;SDS011;11592;45.460;9.240;2023-09-19T02:08:55;33.03;;;16.08;;
22851;SDS011;11592;45.460;9.240;2023-09-19T02:11:22;25.25;;;13.85;;
22851;SDS011;11592;45.460;9.240;2023-09-19T02:13:49;31.23;;;16.13;;
22851;SDS011;11592;45.460;9.240;2023-09-19T02:16:20;29.35;;;15.27;;
22851;SDS011;11592;45.460;9.240;2023-09-19T02:18:50;36.08;;;16.08;;
22851;SDS011;11592;45.460;9.240;2023-09-19T02:21:17;23.67;;;13.35;;
22851;SDS011;11592;45.460;9.240;2023-09-19T02:23:45;28.25;;;13.13;;
22851;SDS011;11592;45.460;9.240;2023-09-19T02:26:13;23.23;;;11.52;;
22851;SDS011;11592;45.460;9.240;2023-09-19T02:28:40;22.13;;;11.40;;
22851;SDS011;11592;45.460;9.240;2023-09-19T02:31:07;21.55;;;10.93;;
22851;SDS011;11592;45.460;9.240;2023-09-19T02:33:34;23.10;;;11.43;;
22851;SDS011;11592;45.460;9.240;2023-09-19T02:36:02;18.48;;;10.63;;
22851;SDS011;11592;45.460;9.240;2023-09-19T02:38:30;24.52;;;11.77;;
22851;SDS011;11592;45.460;9.240;2023-09-19T02:40:56;23.10;;;12.15;;
22851;SDS011;11592;45.460;9.240;2023-09-19T02:43:23;18.73;;;11.23;;
22851;SDS011;11592;45.460;9.240;2023-09-19T02:45:51;18.30;;;10.85;;
22851;SDS011;11592;45.460;9.240;2023-09-19T02:48:19;17.88;;;10.05;;
22851;SDS011;11592;45.460;9.240;2023-09-19T02:50:50;17.90;;;10.15;;
22851;SDS011;11592;45.460;9.240;2023-09-19T02:53:16;17.38;;;9.88;;
22851;SDS011;11592;45.460;9.240;2023-09-19T02:55:43;20.88;;;11.15;;
22851;SDS011;11592;45.460;9.240;2023-09-19T02:58:10;19.05;;;10.30;;
22851;SDS011;11592;45.460;9.240;2023-09-19T03:00:37;19.92;;;10.07;;
22851;SDS011;11592;45.460;9.240;2023-09-19T03:03:05;21.10;;;10.25;;
22851;SDS011;11592;45.460;9.240;2023-09-19T03:05:32;18.83;;;10.38;;
22851;SDS011;11592;45.460;9.240;2023-09-19T03:07:59;20.27;;;10.18;;
22851;SDS011;11592;45.460;9.240;2023-09-19T03:10:27;23.08;;;11.05;;
22851;SDS011;11592;45.460;9.240;2023-09-19T03:12:55;19.38;;;9.77;;
22851;SDS011;11592;45.460;9.240;2023-09-19T03:15:22;17.13;;;10.15;;
22851;SDS011;11592;45.460;9.240;2023-09-19T03:17:49;21.02;;;10.93;;
22851;SDS011;11592;45.460;9.240;2023-09-19T03:20:18;18.65;;;10.20;;
22851;SDS011;11592;45.460;9.240;2023-09-19T03:22:45;20.80;;;10.45;;
22851;SDS011;11592;45.460;9.240;2023-09-19T03:25:12;18.33;;;9.88;;
22851;SDS011;11592;45.460;9.240;2023-09-19T03:27:39;19.67;;;9.95;;
22851;SDS011;11592;45.460;9.240;2023-09-19T03:30:07;17.33;;;10.32;;
22851;SDS011;11592;45.460;9.240;2023-09-19T03:32:48;16.58;;;9.57;;
22851;SDS011;11592;45.460;9.240;2023-09-19T03:35:17;19.30;;;10.07;;
22851;SDS011;11592;45.460;9.240;2023-09-19T03:37:44;18.40;;;9.15;;
22851;SDS011;11592;45.460;9.240;2023-09-19T03:40:11;16.50;;;10.45;;
22851;SDS011;11592;45.460;9.240;2023-09-19T03:42:42;15.02;;;9.93;;
22851;SDS011;11592;45.460;9.240;2023-09-19T03:45:10;17.98;;;10.15;;
22851;SDS011;11592;45.460;9.240;2023-09-19T03:47:39;18.35;;;9.63;;
22851;SDS011;11592;45.460;9.240;2023-09-19T03:50:07;17.15;;;9.23;;
22851;SDS011;11592;45.460;9.240;2023-09-19T03:52:37;23.45;;;10.55;;
22851;SDS011;11592;45.460;9.240;2023-09-19T03:55:03;18.15;;;10.75;;
22851;SDS011;11592;45.460;9.240;2023-09-19T03:57:30;21.38;;;11.32;;
22851;SDS011;11592;45.460;9.240;2023-09-19T03:59:57;21.27;;;11.15;;
22851;SDS011;11592;45.460;9.240;2023-09-19T04:02:24;22.38;;;10.50;;
22851;SDS011;11592;45.460;9.240;2023-09-19T04:04:51;21.73;;;10.10;;
22851;SDS011;11592;45.460;9.240;2023-09-19T04:07:18;18.20;;;10.68;;
22851;SDS011;11592;45.460;9.240;2023-09-19T04:09:48;18.20;;;10.57;;
22851;SDS011;11592;45.460;9.240;2023-09-19T04:12:15;19.67;;;10.88;;
22851;SDS011;11592;45.460;9.240;2023-09-19T04:14:45;30.83;;;14.98;;
22851;SDS011;11592;45.460;9.240;2023-09-19T04:17:12;32.33;;;16.33;;
22851;SDS011;11592;45.460;9.240;2023-09-19T04:19:39;34.15;;;16.15;;
22851;SDS011;11592;45.460;9.240;2023-09-19T04:22:07;26.00;;;14.57;;
22851;SDS011;11592;45.460;9.240;2023-09-19T04:24:35;24.60;;;12.63;;
22851;SDS011;11592;45.460;9.240;2023-09-19T04:27:04;25.38;;;14.15;;
22851;SDS011;11592;45.460;9.240;2023-09-19T04:29:31;25.08;;;14.73;;
22851;SDS011;11592;45.460;9.240;2023-09-19T04:31:59;28.50;;;15.02;;
22851;SDS011;11592;45.460;9.240;2023-09-19T04:34:25;23.67;;;13.88;;
22851;SDS011;11592;45.460;9.240;2023-09-19T04:36:52;29.08;;;14.05;;
22851;SDS011;11592;45.460;9.240;2023-09-19T04:39:19;28.48;;;13.95;;
22851;SDS011;11592;45.460;9.240;2023-09-19T04:41:47;24.80;;;13.20;;
22851;SDS011;11592;45.460;9.240;2023-09-19T04:44:14;20.75;;;12.63;;
22851;SDS011;11592;45.460;9.240;2023-09-19T04:46:42;18.02;;;11.65;;
22851;SDS011;11592;45.460;9.240;2023-09-19T04:49:09;18.92;;;11.05;;
22851;SDS011;11592;45.460;9.240;2023-09-19T04:51:35;18.52;;;11.70;;
22851;SDS011;11592;45.460;9.240;2023-09-19T04:54:03;17.17;;;11.55;;
22851;SDS011;11592;45.460;9.240;2023-09-19T04:56:30;25.52;;;13.35;;
22851;SDS011;11592;45.460;9.240;2023-09-19T04:58:58;23.63;;;13.38;;
22851;SDS011;11592;45.460;9.240;2023-09-19T05:01:26;25.15;;;13.90;;
22851;SDS011;11592;45.460;9.240;2023-09-19T05:03:53;22.58;;;12.75;;
22851;SDS011;11592;45.460;9.240;2023-09-19T05:06:20;22.33;;;13.38;;
22851;SDS011;11592;45.460;9.240;2023-09-19T05:08:50;22.83;;;13.15;;
22851;SDS011;11592;45.460;9.240;2023-09-19T05:11:18;22.20;;;13.15;;
22851;SDS011;11592;45.460;9.240;2023-09-19T05:13:45;22.95;;;13.23;;
22851;SDS011;11592;45.460;9.240;2023-09-19T05:16:12;21.40;;;12.85;;
22851;SDS011;11592;45.460;9.240;2023-09-19T05:18:39;19.15;;;11.60;;
22851;SDS011;11592;45.460;9.240;2023-09-19T05:21:06;17.75;;;11.93;;
22851;SDS011;11592;45.460;9.240;2023-09-19T05:23:34;19.10;;;12.25;;
22851;SDS011;11592;45.460;9.240;2023-09-19T05:26:00;20.15;;;12.48;;
22851;SDS011;11592;45.460;9.240;2023-09-19T05:28:27;20.60;;;12.07;;
22851;SDS011;11592;45.460;9.240;2023-09-19T05:30:55;20.38;;;12.15;;
22851;SDS011;11592;45.460;9.240;2023-09-19T05:33:22;19.15;;;11.60;;
22851;SDS011;11592;45.460;9.240;2023-09-19T05:35:49;21.90;;;12.65;;
22851;SDS011;11592;45.460;9.240;2023-09-19T05:38:16;22.85;;;12.70;;
22851;SDS011;11592;45.460;9.240;2023-09-19T05:40:45;23.65;;;13.82;;
22851;SDS011;11592;45.460;9.240;2023-09-19T05:43:12;25.13;;;13.63;;
22851;SDS011;11592;45.460;9.240;2023-09-19T05:45:40;24.55;;;14.50;;
22851;SDS011;11592;45.460;9.240;2023-09-19T05:48:08;27.48;;;14.13;;
22851;SDS011;11592;45.460;9.240;2023-09-19T05:50:39;23.90;;;14.88;;
22851;SDS011;11592;45.460;9.240;2023-09-19T05:53:06;24.83;;;13.32;;
22851;SDS011;11592;45.460;9.240;2023-09-19T05:55:33;25.55;;;14.60;;
22851;SDS011;11592;45.460;9.240;2023-09-19T05:58:00;21.92;;;13.00;;
22851;SDS011;11592;45.460;9.240;2023-09-19T06:00:26;19.75;;;12.93;;
22851;SDS011;11592;45.460;9.240;2023-09-19T06:02:55;23.20;;;13.57;;
22851;SDS011;11592;45.460;9.240;2023-09-19T06:05:24;26.10;;;13.00;;
22851;SDS011;11592;45.460;9.240;2023-09-19T06:07:53;23.45;;;12.60;;
22851;SDS011;11592;45.460;9.240;2023-09-19T06:10:20;19.10;;;12.20;;
22851;SDS011;11592;45.460;9.240;2023-09-19T06:12:49;18.15;;;12.52;;
22851;SDS011;11592;45.460;9.240;2023-09-19T06:15:16;18.95;;;11.63;;
22851;SDS011;11592;45.460;9.240;2023-09-19T06:17:49;21.63;;;11.95;;
22851;SDS011;11592;45.460;9.240;2023-09-19T06:20:18;23.20;;;11.88;;
22851;SDS011;11592;45.460;9.240;2023-09-19T06:22:46;19.20;;;12.10;;
22851;SDS011;11592;45.460;9.240;2023-09-19T06:25:13;19.77;;;12.63;;
22851;SDS011;11592;45.460;9.240;2023-09-19T06:27:49;22.73;;;12.68;;
22851;SDS011;11592;45.460;9.240;2023-09-19T06:30:18;19.30;;;12.00;;
22851;SDS011;11592;45.460;9.240;2023-09-19T06:32:45;17.65;;;11.32;;
22851;SDS011;11592;45.460;9.240;2023-09-19T06:35:13;17.85;;;11.07;;
22851;SDS011;11592;45.460;9.240;2023-09-19T06:37:41;15.93;;;10.63;;
22851;SDS011;11592;45.460;9.240;2023-09-19T06:40:12;14.35;;;10.70;;
22851;SDS011;11592;45.460;9.240;2023-09-19T06:42:44;19.95;;;11.05;;
22851;SDS011;11592;45.460;9.240;2023-09-19T06:45:14;17.42;;;10.95;;
22851;SDS011;11592;45.460;9.240;2023-09-19T06:47:48;17.60;;;10.98;;
22851;SDS011;11592;45.460;9.240;2023-09-19T06:50:18;19.73;;;11.95;;
22851;SDS011;11592;45.460;9.240;2023-09-19T06:52:46;18.98;;;13.60;;
22851;SDS011;11592;45.460;9.240;2023-09-19T06:55:18;18.15;;;12.70;;
22851;SDS011;11592;45.460;9.240;2023-09-19T06:57:46;19.90;;;12.30;;
22851;SDS011;11592;45.460;9.240;2023-09-19T07:00:14;19.50;;;12.25;;
22851;SDS011;11592;45.460;9.240;2023-09-19T07:02:42;20.20;;;12.93;;
22851;SDS011;11592;45.460;9.240;2023-09-19T07:05:09;26.42;;;15.02;;
22851;SDS011;11592;45.460;9.240;2023-09-19T07:07:37;28.38;;;15.40;;
22851;SDS011;11592;45.460;9.240;2023-09-19T07:10:03;23.38;;;14.00;;
22851;SDS011;11592;45.460;9.240;2023-09-19T07:12:37;26.30;;;14.40;;
22851;SDS011;11592;45.460;9.240;2023-09-19T07:15:04;26.77;;;15.70;;
22851;SDS011;11592;45.460;9.240;2023-09-19T07:17:32;25.02;;;14.80;;
22851;SDS011;11592;45.460;9.240;2023-09-19T07:19:59;21.23;;;13.55;;
22851;SDS011;11592;45.460;9.240;2023-09-19T07:22:26;26.50;;;15.02;;
22851;SDS011;11592;45.460;9.240;2023-09-19T07:24:53;29.88;;;15.07;;
22851;SDS011;11592;45.460;9.240;2023-09-19T07:27:21;25.38;;;15.02;;
22851;SDS011;11592;45.460;9.240;2023-09-19T07:29:47;24.85;;;15.27;;
22851;SDS011;11592;45.460;9.240;2023-09-19T07:32:18;21.95;;;14.50;;
22851;SDS011;11592;45.460;9.240;2023-09-19T07:34:45;25.20;;;15.30;;
22851;SDS011;11592;45.460;9.240;2023-09-19T07:37:12;24.83;;;15.52;;
22851;SDS011;11592;45.460;9.240;2023-09-19T07:39:41;26.45;;;14.13;;
22851;SDS011;11592;45.460;9.240;2023-09-19T07:42:07;22.13;;;14.20;;
22851;SDS011;11592;45.460;9.240;2023-09-19T07:44:35;25.40;;;14.50;;
22851;SDS011;11592;45.460;9.240;2023-09-19T07:47:02;23.65;;;13.27;;
22851;SDS011;11592;45.460;9.240;2023-09-19T07:49:29;21.25;;;14.38;;
22851;SDS011;11592;45.460;9.240;2023-09-19T07:51:56;21.98;;;13.05;;
22851;SDS011;11592;45.460;9.240;2023-09-19T07:54:23;25.05;;;14.60;;
22851;SDS011;11592;45.460;9.240;2023-09-19T07:56:50;25.70;;;14.35;;
22851;SDS011;11592;45.460;9.240;2023-09-19T07:59:17;21.60;;;12.77;;
22851;SDS011;11592;45.460;9.240;2023-09-19T08:01:43;20.10;;;11.35;;
22851;SDS011;11592;45.460;9.240;2023-09-19T08:04:11;19.83;;;11.68;;
22851;SDS011;11592;45.460;9.240;2023-09-19T08:06:38;18.92;;;11.05;;
22851;SDS011;11592;45.460;9.240;2023-09-19T08:09:05;18.92;;;10.27;;
22851;SDS011;11592;45.460;9.240;2023-09-19T08:11:35;23.27;;;10.40;;
22851;SDS011;11592;45.460;9.240;2023-09-19T08:14:02;18.67;;;10.38;;
22851;SDS011;11592;45.460;9.240;2023-09-19T08:16:29;20.20;;;9.95;;
22851;SDS011;11592;45.460;9.240;2023-09-19T08:18:56;24.67;;;11.05;;
22851;SDS011;11592;45.460;9.240;2023-09-19T08:21:23;19.80;;;10.52;;
22851;SDS011;11592;45.460;9.240;2023-09-19T08:23:50;13.98;;;9.63;;
22851;SDS011;11592;45.460;9.240;2023-09-19T08:26:18;18.55;;;9.80;;
22851;SDS011;11592;45.460;9.240;2023-09-19T08:28:45;17.92;;;10.38;;
22851;SDS011;11592;45.460;9.240;2023-09-19T08:31:12;16.02;;;10.15;;
22851;SDS011;11592;45.460;9.240;2023-09-19T08:33:39;19.73;;;10.32;;
22851;SDS011;11592;45.460;9.240;2023-09-19T08:36:07;17.58;;;10.07;;
22851;SDS011;11592;45.460;9.240;2023-09-19T08:38:35;18.38;;;10.35;;
22851;SDS011;11592;45.460;9.240;2023-09-19T08:41:06;18.98;;;9.88;;
22851;SDS011;11592;45.460;9.240;2023-09-19T08:43:34;24.08;;;11.73;;
22851;SDS011;11592;45.460;9.240;2023-09-19T08:48:31;20.98;;;11.50;;
22851;SDS011;11592;45.460;9.240;2023-09-19T08:56:36;27.25;;;14.15;;
22851;SDS011;11592;45.460;9.240;2023-09-19T08:59:06;22.30;;;13.60;;
22851;SDS011;11592;45.460;9.240;2023-09-19T09:01:38;22.98;;;12.73;;
22851;SDS011;11592;45.460;9.240;2023-09-19T09:04:08;20.83;;;12.00;;
22851;SDS011;11592;45.460;9.240;2023-09-19T09:06:39;26.25;;;13.27;;
22851;SDS011;11592;45.460;9.240;2023-09-19T09:09:09;22.88;;;13.13;;
22851;SDS011;11592;45.460;9.240;2023-09-19T09:11:37;24.05;;;13.07;;
22851;SDS011;11592;45.460;9.240;2023-09-19T09:14:06;22.08;;;13.60;;
22851;SDS011;11592;45.460;9.240;2023-09-19T09:16:36;19.25;;;12.60;;
22851;SDS011;11592;45.460;9.240;2023-09-19T09:19:04;19.52;;;13.02;;
22851;SDS011;11592;45.460;9.240;2023-09-19T09:21:31;22.25;;;12.00;;
22851;SDS011;11592;45.460;9.240;2023-09-19T09:26:56;19.75;;;11.98;;
22851;SDS011;11592;45.460;9.240;2023-09-19T09:29:42;21.00;;;11.85;;
22851;SDS011;11592;45.460;9.240;2023-09-19T09:34:51;18.83;;;10.93;;
22851;SDS011;11592;45.460;9.240;2023-09-19T09:37:21;16.90;;;9.32;;
22851;SDS011;11592;45.460;9.240;2023-09-19T09:39:55;20.60;;;11.15;;
22851;SDS011;11592;45.460;9.240;2023-09-19T09:42:34;21.30;;;11.65;;
22851;SDS011;11592;45.460;9.240;2023-09-19T09:45:20;16.75;;;11.27;;
22851;SDS011;11592;45.460;9.240;2023-09-19T09:48:03;19.83;;;11.90;;
22851;SDS011;11592;45.460;9.240;2023-09-19T09:50:47;26.63;;;12.23;;
22851;SDS011;11592;45.460;9.240;2023-09-19T09:53:21;19.67;;;10.73;;
22851;SDS011;11592;45.460;9.240;2023-09-19T09:56:03;19.00;;;10.68;;
22851;SDS011;11592;45.460;9.240;2023-09-19T09:58:36;20.48;;;11.65;;
22851;SDS011;11592;45.460;9.240;2023-09-19T10:01:04;20.58;;;12.07;;
22851;SDS011;11592;45.460;9.240;2023-09-19T10:03:41;18.67;;;10.52;;
22851;SDS011;11592;45.460;9.240;2023-09-19T10:06:16;16.33;;;9.17;;
22851;SDS011;11592;45.460;9.240;2023-09-19T10:09:08;15.85;;;9.60;;
22851;SDS011;11592;45.460;9.240;2023-09-19T10:11:39;18.40;;;9.90;;
22851;SDS011;11592;45.460;9.240;2023-09-19T10:14:09;18.02;;;10.27;;
22851;SDS011;11592;45.460;9.240;2023-09-19T10:16:46;19.30;;;10.48;;
22851;SDS011;11592;45.460;9.240;2023-09-19T10:19:16;19.42;;;10.73;;
22851;SDS011;11592;45.460;9.240;2023-09-19T10:22:06;15.13;;;9.40;;
22851;SDS011;11592;45.460;9.240;2023-09-19T10:24:35;19.95;;;10.20;;
22851;SDS011;11592;45.460;9.240;2023-09-19T10:27:22;21.08;;;9.15;;
22851;SDS011;11592;45.460;9.240;2023-09-19T10:29:52;16.50;;;8.63;;
22851;SDS011;11592;45.460;9.240;2023-09-19T10:32:22;22.40;;;9.18;;
22851;SDS011;11592;45.460;9.240;2023-09-19T10:34:50;13.48;;;6.72;;
22851;SDS011;11592;45.460;9.240;2023-09-19T10:37:21;17.45;;;8.68;;
22851;SDS011;11592;45.460;9.240;2023-09-19T10:39:53;15.55;;;8.07;;
22851;SDS011;11592;45.460;9.240;2023-09-19T10:42:22;10.95;;;7.07;;
22851;SDS011;11592;45.460;9.240;2023-09-19T10:44:54;15.02;;;7.15;;
22851;SDS011;11592;45.460;9.240;2023-09-19T10:47:26;15.20;;;6.35;;
22851;SDS011;11592;45.460;9.240;2023-09-19T10:49:53;13.05;;;6.80;;
22851;SDS011;11592;45.460;9.240;2023-09-19T10:52:22;12.15;;;6.43;;
22851;SDS011;11592;45.460;9.240;2023-09-19T10:54:52;14.75;;;6.47;;
22851;SDS011;11592;45.460;9.240;2023-09-19T10:57:23;12.88;;;5.65;;
22851;SDS011;11592;45.460;9.240;2023-09-19T11:00:03;11.55;;;6.43;;
22851;SDS011;11592;45.460;9.240;2023-09-19T11:05:35;9.93;;;5.75;;
22851;SDS011;11592;45.460;9.240;2023-09-19T11:08:07;13.60;;;6.32;;
22851;SDS011;11592;45.460;9.240;2023-09-19T11:10:50;13.15;;;6.53;;
22851;SDS011;11592;45.460;9.240;2023-09-19T11:26:48;14.90;;;6.13;;
22851;SDS011;11592;45.460;9.240;2023-09-19T11:29:25;14.52;;;5.93;;
22851;SDS011;11592;45.460;9.240;2023-09-19T11:31:56;16.50;;;5.55;;
22851;SDS011;11592;45.460;9.240;2023-09-19T11:34:42;14.68;;;6.40;;
22851;SDS011;11592;45.460;9.240;2023-09-19T11:42:46;10.40;;;4.70;;
22851;SDS011;11592;45.460;9.240;2023-09-19T11:48:18;16.55;;;5.43;;
22851;SDS011;11592;45.460;9.240;2023-09-19T11:50:46;15.95;;;4.63;;
22851;SDS011;11592;45.460;9.240;2023-09-19T11:53:14;9.57;;;4.32;;
22851;SDS011;11592;45.460;9.240;2023-09-19T11:55:42;7.82;;;4.70;;
22851;SDS011;11592;45.460;9.240;2023-09-19T11:58:10;10.13;;;4.07;;
22851;SDS011;11592;45.460;9.240;2023-09-19T12:00:39;10.23;;;3.95;;
22851;SDS011;11592;45.460;9.240;2023-09-19T12:03:10;10.73;;;4.65;;
22851;SDS011;11592;45.460;9.240;2023-09-19T12:05:39;5.40;;;3.20;;
22851;SDS011;11592;45.460;9.240;2023-09-19T12:08:09;9.18;;;3.95;;
22851;SDS011;11592;45.460;9.240;2023-09-19T12:10:49;10.50;;;4.45;;
22851;SDS011;11592;45.460;9.240;2023-09-19T12:13:17;9.98;;;3.97;;
22851;SDS011;11592;45.460;9.240;2023-09-19T12:15:45;9.35;;;3.60;;
22851;SDS011;11592;45.460;9.240;2023-09-19T12:18:30;8.23;;;3.00;;
22851;SDS011;11592;45.460;9.240;2023-09-19T12:20:57;9.98;;;3.90;;
22851;SDS011;11592;45.460;9.240;2023-09-19T12:23:24;9.15;;;3.55;;
22851;SDS011;11592;45.460;9.240;2023-09-19T12:25:54;10.25;;;4.00;;
22851;SDS011;11592;45.460;9.240;2023-09-19T12:28:25;11.00;;;3.67;;
22851;SDS011;11592;45.460;9.240;2023-09-19T12:30:53;6.47;;;2.85;;
22851;SDS011;11592;45.460;9.240;2023-09-19T12:33:21;6.22;;;2.90;;
22851;SDS011;11592;45.460;9.240;2023-09-19T12:35:51;7.82;;;3.25;;
22851;SDS011;11592;45.460;9.240;2023-09-19T12:38:22;9.02;;;3.40;;
22851;SDS011;11592;45.460;9.240;2023-09-19T12:40:55;7.68;;;2.80;;
22851;SDS011;11592;45.460;9.240;2023-09-19T12:43:25;7.78;;;3.15;;
22851;SDS011;11592;45.460;9.240;2023-09-19T12:45:54;11.80;;;3.33;;
22851;SDS011;11592;45.460;9.240;2023-09-19T12:48:22;9.82;;;3.13;;
22851;SDS011;11592;45.460;9.240;2023-09-19T12:53:36;13.05;;;3.30;;
22851;SDS011;11592;45.460;9.240;2023-09-19T12:56:15;7.15;;;2.20;;
22851;SDS011;11592;45.460;9.240;2023-09-19T12:58:51;6.40;;;2.60;;
22851;SDS011;11592;45.460;9.240;2023-09-19T13:01:22;6.43;;;2.42;;
22851;SDS011;11592;45.460;9.240;2023-09-19T13:04:30;8.02;;;2.83;;
22851;SDS011;11592;45.460;9.240;2023-09-19T13:06:54;4.80;;;2.50;;
22851;SDS011;11592;45.460;9.240;2023-09-19T13:09:27;4.05;;;2.38;;
22851;SDS011;11592;45.460;9.240;2023-09-19T13:12:02;6.38;;;2.38;;
22851;SDS011;11592;45.460;9.240;2023-09-19T13:14:30;9.88;;;3.03;;
22851;SDS011;11592;45.460;9.240;2023-09-19T13:17:07;8.13;;;2.50;;
22851;SDS011;11592;45.460;9.240;2023-09-19T13:19:46;8.57;;;3.00;;
22851;SDS011;11592;45.460;9.240;2023-09-19T13:22:40;7.18;;;2.42;;
22851;SDS011;11592;45.460;9.240;2023-09-19T13:25:16;6.30;;;2.53;;
22851;SDS011;11592;45.460;9.240;2023-09-19T13:27:46;8.00;;;2.97;;
22851;SDS011;11592;45.460;9.240;2023-09-19T13:30:18;4.82;;;2.40;;
22851;SDS011;11592;45.460;9.240;2023-09-19T13:32:46;6.82;;;2.10;;
22851;SDS011;11592;45.460;9.240;2023-09-19T13:35:14;3.88;;;2.17;;
22851;SDS011;11592;45.460;9.240;2023-09-19T13:37:41;5.82;;;2.20;;
22851;SDS011;11592;45.460;9.240;2023-09-19T13:40:14;3.60;;;1.90;;
22851;SDS011;11592;45.460;9.240;2023-09-19T13:42:41;10.85;;;2.40;;
22851;SDS011;11592;45.460;9.240;2023-09-19T13:45:09;7.20;;;2.50;;
22851;SDS011;11592;45.460;9.240;2023-09-19T13:47:39;5.05;;;2.30;;
22851;SDS011;11592;45.460;9.240;2023-09-19T13:50:07;5.28;;;2.10;;
22851;SDS011;11592;45.460;9.240;2023-09-19T13:52:35;5.75;;;2.58;;
22851;SDS011;11592;45.460;9.240;2023-09-19T13:55:02;4.93;;;2.50;;
22851;SDS011;11592;45.460;9.240;2023-09-19T13:57:29;6.03;;;2.55;;
22851;SDS011;11592;45.460;9.240;2023-09-19T13:59:56;7.70;;;2.78;;
22851;SDS011;11592;45.460;9.240;2023-09-19T14:02:23;7.38;;;2.33;;
22851;SDS011;11592;45.460;9.240;2023-09-19T14:04:51;10.20;;;2.58;;
22851;SDS011;11592;45.460;9.240;2023-09-19T14:07:18;5.35;;;2.80;;
22851;SDS011;11592;45.460;9.240;2023-09-19T14:09:46;8.50;;;2.58;;
22851;SDS011;11592;45.460;9.240;2023-09-19T14:12:15;9.23;;;2.60;;
22851;SDS011;11592;45.460;9.240;2023-09-19T14:14:42;5.00;;;2.42;;
22851;SDS011;11592;45.460;9.240;2023-09-19T14:17:09;8.70;;;2.63;;
22851;SDS011;11592;45.460;9.240;2023-09-19T14:19:36;5.35;;;2.80;;
22851;SDS011;11592;45.460;9.240;2023-09-19T14:22:03;4.97;;;2.28;;
22851;SDS011;11592;45.460;9.240;2023-09-19T14:24:34;5.13;;;2.38;;
22851;SDS011;11592;45.460;9.240;2023-09-19T14:27:01;5.93;;;2.25;;
22851;SDS011;11592;45.460;9.240;2023-09-19T14:29:30;5.45;;;2.60;;
22851;SDS011;11592;45.460;9.240;2023-09-19T14:31:58;5.15;;;2.45;;
22851;SDS011;11592;45.460;9.240;2023-09-19T14:34:25;7.88;;;2.30;;
22851;SDS011;11592;45.460;9.240;2023-09-19T14:36:52;5.38;;;2.13;;
22851;SDS011;11592;45.460;9.240;2023-09-19T14:39:20;7.10;;;3.17;;
22851;SDS011;11592;45.460;9.240;2023-09-19T14:41:47;5.13;;;2.40;;
22851;SDS011;11592;45.460;9.240;2023-09-19T14:44:14;4.30;;;2.38;;
22851;SDS011;11592;45.460;9.240;2023-09-19T14:46:44;5.47;;;2.40;;
22851;SDS011;11592;45.460;9.240;2023-09-19T14:49:12;6.97;;;2.83;;
22851;SDS011;11592;45.460;9.240;2023-09-19T14:51:38;6.05;;;2.30;;
22851;SDS011;11592;45.460;9.240;2023-09-19T14:54:10;5.70;;;2.53;;
22851;SDS011;11592;45.460;9.240;2023-09-19T14:56:37;8.88;;;2.30;;
22851;SDS011;11592;45.460;9.240;2023-09-19T14:59:04;8.40;;;2.50;;
22851;SDS011;11592;45.460;9.240;2023-09-19T15:01:31;6.40;;;2.88;;
22851;SDS011;11592;45.460;9.240;2023-09-19T15:03:59;5.50;;;2.40;;
22851;SDS011;11592;45.460;9.240;2023-09-19T15:06:27;3.80;;;2.17;;
22851;SDS011;11592;45.460;9.240;2023-09-19T15:08:54;5.28;;;2.40;;
22851;SDS011;11592;45.460;9.240;2023-09-19T15:11:21;8.02;;;2.42;;
22851;SDS011;11592;45.460;9.240;2023-09-19T15:13:51;7.22;;;2.22;;
22851;SDS011;11592;45.460;9.240;2023-09-19T15:16:18;8.00;;;4.22;;
22851;SDS011;11592;45.460;9.240;2023-09-19T15:18:46;7.28;;;3.50;;
22851;SDS011;11592;45.460;9.240;2023-09-19T15:21:15;7.32;;;2.47;;
22851;SDS011;11592;45.460;9.240;2023-09-19T15:23:43;4.38;;;2.35;;
22851;SDS011;11592;45.460;9.240;2023-09-19T15:26:11;9.27;;;4.25;;
22851;SDS011;11592;45.460;9.240;2023-09-19T15:28:39;6.63;;;2.47;;
22851;SDS011;11592;45.460;9.240;2023-09-19T15:31:08;7.03;;;2.72;;
22851;SDS011;11592;45.460;9.240;2023-09-19T15:33:38;7.10;;;2.85;;
22851;SDS011;11592;45.460;9.240;2023-09-19T15:36:12;6.57;;;2.83;;
22851;SDS011;11592;45.460;9.240;2023-09-19T15:44:01;3.83;;;2.22;;
22851;SDS011;11592;45.460;9.240;2023-09-19T15:46:30;3.58;;;1.92;;
22851;SDS011;11592;45.460;9.240;2023-09-19T15:48:58;3.50;;;1.98;;
22851;SDS011;11592;45.460;9.240;2023-09-19T15:51:26;4.63;;;2.15;;